Time;durP1;ratioP1;P1;durP2;ratioP2;P2;SDS_P1;SDS_P2;PMS_P1;PMS_P2;Temp;Humidity;BMP_temperature;BMP_pressure;BME280_temperature;BME280_humidity;BME280_pressure;Samples;Min_cycle;Max_cycle;Signal;HPM_P1;HPM_P2
2023/05/19 00:00:29;;;;;;;3.05;1.75;;;;;;;;;;13003421;19;19915;-64
2023/05/19 00:05:09;;;;;;;2.47;1.75;;;;;;;;;;13001780;19;20470;-64
2023/05/19 00:09:27;;;;;;;3.33;1.33;;;;;;;;;;13002168;19;20038;-65
2023/05/19 00:13:48;;;;;;;3.03;1.50;;;;;;;;;;13001223;19;20030;-64
2023/05/19 00:18:07;;;;;;;2.78;1.80;;;;;;;;;;13001327;19;20015;-64
2023/05/19 00:22:25;;;;;;;3.97;1.70;;;;;;;;;;13001983;19;20018;-65
2023/05/19 00:26:43;;;;;;;4.45;1.52;;;;;;;;;;13001677;19;20014;-65
2023/05/19 00:31:01;;;;;;;3.55;1.63;;;;;;;;;;13000979;19;20002;-63
2023/05/19 00:35:19;;;;;;;3.10;1.50;;;;;;;;;;12999590;19;20011;-64
2023/05/19 00:39:37;;;;;;;4.55;1.80;;;;;;;;;;13000744;19;20015;-63
2023/05/19 00:43:54;;;;;;;2.80;1.75;;;;;;;;;;12999995;19;20022;-63
2023/05/19 00:48:12;;;;;;;3.10;1.50;;;;;;;;;;13000479;19;20018;-63
2023/05/19 00:52:30;;;;;;;2.13;1.30;;;;;;;;;;13000108;19;20014;-63
2023/05/19 00:56:48;;;;;;;2.00;1.35;;;;;;;;;;12998258;19;20030;-63
2023/05/19 01:01:07;;;;;;;;;;;;;;;;;;12997679;19;20034;-64
2023/05/19 01:05:25;;;;;;;1.80;1.17;;;;;;;;;;13000518;19;19915;-64
2023/05/19 01:09:43;;;;;;;;;;;;;;;;;;13000219;19;20042;-63
2023/05/19 01:14:00;;;;;;;3.63;1.30;;;;;;;;;;12996799;19;19922;-63
2023/05/19 01:18:32;;;;;;;4.15;1.40;;;;;;;;;;12998799;19;20338;-63
2023/05/19 01:23:38;;;;;;;5.30;1.52;;;;;;;;;;12998124;19;20034;-63
2023/05/19 01:28:28;;;;;;;2.40;1.27;;;;;;;;;;12998731;19;20002;-63
2023/05/19 01:32:47;;;;;;;2.70;1.80;;;;;;;;;;13006126;19;20081;-63
2023/05/19 01:37:06;;;;;;;2.67;1.25;;;;;;;;;;13008485;19;20010;-64
2023/05/19 01:41:27;;;;;;;3.22;1.48;;;;;;;;;;13009844;19;20006;-63
2023/05/19 01:45:45;;;;;;;2.45;1.35;;;;;;;;;;13009354;19;20485;-63
2023/05/19 01:50:03;;;;;;;3.40;1.60;;;;;;;;;;13007211;19;20006;-63
2023/05/19 01:54:21;;;;;;;2.22;1.23;;;;;;;;;;13008737;19;20038;-63
2023/05/19 01:58:51;;;;;;;1.75;1.25;;;;;;;;;;13009340;19;20368;-63
2023/05/19 02:03:37;;;;;;;1.85;1.15;;;;;;;;;;13008757;19;20465;-63
2023/05/19 02:08:19;;;;;;;2.78;1.42;;;;;;;;;;13009249;19;19998;-63
2023/05/19 02:12:39;;;;;;;3.38;1.40;;;;;;;;;;13007725;19;20458;-63
2023/05/19 02:16:58;;;;;;;3.20;1.75;;;;;;;;;;13006930;19;20375;-63
2023/05/19 02:21:16;;;;;;;2.10;1.45;;;;;;;;;;13006095;19;20014;-63
2023/05/19 02:25:33;;;;;;;2.25;1.48;;;;;;;;;;13007815;19;20359;-63
2023/05/19 02:29:52;;;;;;;2.65;1.40;;;;;;;;;;13008742;19;20461;-63
2023/05/19 02:34:09;;;;;;;5.75;1.40;;;;;;;;;;13006462;19;20003;-63
2023/05/19 02:38:27;;;;;;;4.53;1.98;;;;;;;;;;13007364;19;20011;-63
2023/05/19 02:42:44;;;;;;;1.55;1.20;;;;;;;;;;13002443;19;20370;-63
2023/05/19 02:47:02;;;;;;;2.42;1.52;;;;;;;;;;13005410;19;20086;-64
2023/05/19 02:51:21;;;;;;;4.00;1.65;;;;;;;;;;13006181;19;20350;-63
2023/05/19 02:55:38;;;;;;;3.05;1.45;;;;;;;;;;13005857;19;20010;-63
2023/05/19 02:59:56;;;;;;;4.10;1.35;;;;;;;;;;13005885;19;20451;-63
2023/05/19 03:04:14;;;;;;;2.15;1.27;;;;;;;;;;13006042;19;20014;-63
2023/05/19 03:08:32;;;;;;;3.63;1.45;;;;;;;;;;13005769;19;20045;-64
2023/05/19 03:12:49;;;;;;;2.75;1.52;;;;;;;;;;13004666;19;20002;-64
2023/05/19 03:17:08;;;;;;;;;;;;;;;;;;13004797;19;20013;-64
2023/05/19 03:21:27;;;;;;;2.05;1.63;;;;;;;;;;13005327;19;19918;-63
2023/05/19 03:25:45;;;;;;;2.88;1.80;;;;;;;;;;13003443;19;20021;-64
2023/05/19 03:30:05;;;;;;;4.55;1.70;;;;;;;;;;13003416;19;20408;-66
2023/05/19 03:34:23;;;;;;;3.38;1.50;;;;;;;;;;13003909;19;20018;-64
2023/05/19 03:38:41;;;;;;;4.95;2.10;;;;;;;;;;13003865;19;20473;-63
2023/05/19 03:42:59;;;;;;;3.63;1.52;;;;;;;;;;13004389;19;20090;-64
2023/05/19 03:47:19;;;;;;;3.17;1.60;;;;;;;;;;13002318;19;20007;-63
2023/05/19 03:51:37;;;;;;;4.22;1.88;;;;;;;;;;13003137;19;20011;-63
2023/05/19 03:55:55;;;;;;;3.10;1.42;;;;;;;;;;13001920;19;20318;-63
2023/05/19 04:00:14;;;;;;;2.55;1.33;;;;;;;;;;13002335;19;20465;-64
2023/05/19 04:04:32;;;;;;;2.03;1.35;;;;;;;;;;13003030;19;20017;-63
2023/05/19 04:08:50;;;;;;;2.42;1.27;;;;;;;;;;13002494;19;20010;-63
2023/05/19 04:13:08;;;;;;;4.30;1.85;;;;;;;;;;13001216;19;20440;-64
2023/05/19 04:17:26;;;;;;;;;;;;;;;;;;13002178;19;20011;-64
2023/05/19 04:21:45;;;;;;;7.07;2.25;;;;;;;;;;13001622;19;19922;-63
2023/05/19 04:26:05;;;;;;;;;;;;;;;;;;13001457;19;20010;-64
2023/05/19 04:30:23;;;;;;;8.32;1.73;;;;;;;;;;13000863;19;20003;-63
2023/05/19 04:34:44;;;;;;;2.53;1.70;;;;;;;;;;13000476;19;20368;-64
2023/05/19 04:39:06;;;;;;;4.05;1.80;;;;;;;;;;13000461;19;20442;-64
2023/05/19 04:43:24;;;;;;;4.03;2.08;;;;;;;;;;13000523;19;20018;-64
2023/05/19 04:47:41;;;;;;;2.67;1.55;;;;;;;;;;13000425;19;20014;-63
2023/05/19 04:52:00;;;;;;;2.80;1.73;;;;;;;;;;13000281;19;20010;-63
2023/05/19 04:56:18;;;;;;;3.55;1.85;;;;;;;;;;12998928;19;20010;-64
2023/05/19 05:00:36;;;;;;;3.25;1.83;;;;;;;;;;12999979;19;20011;-63
2023/05/19 05:04:55;;;;;;;3.05;1.88;;;;;;;;;;13001214;19;20013;-64
2023/05/19 05:09:14;;;;;;;5.00;1.50;;;;;;;;;;13012042;19;19999;-64
2023/05/19 05:13:32;;;;;;;5.38;2.60;;;;;;;;;;13011920;19;20350;-64
2023/05/19 05:17:51;;;;;;;3.25;1.63;;;;;;;;;;13012229;19;19995;-64
2023/05/19 05:22:10;;;;;;;5.22;1.95;;;;;;;;;;13011334;19;20010;-64
2023/05/19 05:26:32;;;;;;;2.72;1.67;;;;;;;;;;13010215;19;20006;-64
2023/05/19 05:30:49;;;;;;;3.40;2.22;;;;;;;;;;13010421;19;20029;-63
2023/05/19 05:35:08;;;;;;;7.85;3.28;;;;;;;;;;13009895;19;20312;-63
2023/05/19 05:39:26;;;;;;;5.22;2.10;;;;;;;;;;13009079;19;20030;-64
2023/05/19 05:43:45;;;;;;;4.45;2.25;;;;;;;;;;13009515;19;20025;-64
2023/05/19 05:48:03;;;;;;;6.05;2.67;;;;;;;;;;13009705;19;20010;-64
2023/05/19 05:52:29;;;;;;;9.52;3.35;;;;;;;;;;13009917;19;20032;-64
2023/05/19 05:56:48;;;;;;;10.40;3.17;;;;;;;;;;13008853;19;20028;-64
2023/05/19 06:01:10;;;;;;;5.90;1.90;;;;;;;;;;13008529;19;20010;-64
2023/05/19 06:05:28;;;;;;;3.50;2.13;;;;;;;;;;13009315;19;20006;-64
2023/05/19 06:09:45;;;;;;;6.28;2.95;;;;;;;;;;13009694;19;20466;-64
2023/05/19 06:14:03;;;;;;;4.28;1.98;;;;;;;;;;13007255;19;20367;-64
2023/05/19 06:18:21;;;;;;;9.13;2.97;;;;;;;;;;13008453;19;20062;-63
2023/05/19 06:22:40;;;;;;;5.60;2.28;;;;;;;;;;13008381;19;20026;-63
2023/05/19 06:26:58;;;;;;;3.88;2.22;;;;;;;;;;13007865;19;20014;-63
2023/05/19 06:31:17;;;;;;;3.17;1.73;;;;;;;;;;13007027;19;20026;-64
2023/05/19 06:35:34;;;;;;;4.32;2.08;;;;;;;;;;13007060;19;20003;-64
2023/05/19 06:39:52;;;;;;;5.13;2.35;;;;;;;;;;13007747;19;20031;-64
2023/05/19 06:44:11;;;;;;;9.32;2.78;;;;;;;;;;13005030;19;20014;-64
2023/05/19 06:48:29;;;;;;;;;;;;;;;;;;13007434;19;20002;-63
2023/05/19 06:52:47;;;;;;;7.13;2.97;;;;;;;;;;13006283;19;19930;-63
2023/05/19 06:57:05;;;;;;;9.95;3.50;;;;;;;;;;13005211;19;20493;-65
2023/05/19 07:01:25;;;;;;;6.43;3.03;;;;;;;;;;13005792;19;20354;-65
2023/05/19 07:05:43;;;;;;;5.80;2.67;;;;;;;;;;13005702;19;20026;-64
2023/05/19 07:10:00;;;;;;;5.50;3.13;;;;;;;;;;13003899;19;20020;-64
2023/05/19 07:14:19;;;;;;;4.43;2.78;;;;;;;;;;13004805;19;20018;-64
2023/05/19 07:18:38;;;;;;;3.17;2.22;;;;;;;;;;13004464;19;20011;-64
2023/05/19 07:22:56;;;;;;;2.88;1.83;;;;;;;;;;13004875;19;20018;-64
2023/05/19 07:27:14;;;;;;;4.18;2.55;;;;;;;;;;13003901;19;20015;-65
2023/05/19 07:31:33;;;;;;;2.78;1.98;;;;;;;;;;13002879;19;20011;-65
2023/05/19 07:35:50;;;;;;;4.93;2.80;;;;;;;;;;13003644;19;20002;-65
2023/05/19 07:40:09;;;;;;;3.65;1.92;;;;;;;;;;13004029;19;20007;-65
2023/05/19 07:44:27;;;;;;;;;;;;;;;;;;13003355;19;20387;-65
2023/05/19 07:48:44;;;;;;;4.82;1.95;;;;;;;;;;13003764;19;19911;-65
2023/05/19 07:53:02;;;;;;;3.60;2.03;;;;;;;;;;13002341;19;20011;-65
2023/05/19 07:57:22;;;;;;;3.75;2.03;;;;;;;;;;13002412;19;20109;-65
2023/05/19 08:01:39;;;;;;;3.75;1.95;;;;;;;;;;13003050;19;19998;-65
2023/05/19 08:05:57;;;;;;;3.75;1.70;;;;;;;;;;13000641;19;20025;-65
2023/05/19 08:10:16;;;;;;;3.88;1.80;;;;;;;;;;13001642;19;20033;-65
2023/05/19 08:14:36;;;;;;;3.30;1.83;;;;;;;;;;13002138;19;20044;-65
2023/05/19 08:18:54;;;;;;;3.72;1.83;;;;;;;;;;13001653;19;20006;-65
2023/05/19 08:23:13;;;;;;;8.68;3.42;;;;;;;;;;13000930;19;20017;-65
2023/05/19 08:27:31;;;;;;;7.35;3.50;;;;;;;;;;13001251;19;20099;-65
2023/05/19 08:31:51;;;;;;;3.50;1.95;;;;;;;;;;13001347;19;20015;-65
2023/05/19 08:36:09;;;;;;;4.22;2.45;;;;;;;;;;12999577;19;20078;-66
2023/05/19 08:40:30;;;;;;;6.05;2.55;;;;;;;;;;13002537;19;20362;-65
2023/05/19 08:44:48;;;;;;;4.65;1.88;;;;;;;;;;13011090;19;20007;-65
2023/05/19 08:49:12;;;;;;;3.30;2.17;;;;;;;;;;13012367;19;20014;-66
2023/05/19 08:53:38;;;;;;;4.00;1.88;;;;;;;;;;13013063;19;20010;-65
2023/05/19 08:57:56;;;;;;;5.30;2.60;;;;;;;;;;13012867;19;20021;-65
2023/05/19 09:02:14;;;;;;;4.35;2.25;;;;;;;;;;13010302;19;20028;-65
2023/05/19 09:06:32;;;;;;;2.85;1.95;;;;;;;;;;13011740;19;20006;-65
2023/05/19 09:10:52;;;;;;;4.20;2.70;;;;;;;;;;13011777;19;20018;-65
2023/05/19 09:15:14;;;;;;;4.72;2.33;;;;;;;;;;13011267;19;20014;-65
2023/05/19 09:19:32;;;;;;;4.45;2.30;;;;;;;;;;13010873;19;20355;-65
2023/05/19 09:23:50;;;;;;;6.00;2.53;;;;;;;;;;13011213;19;20003;-65
2023/05/19 09:28:08;;;;;;;7.25;2.33;;;;;;;;;;13008868;19;20007;-65
2023/05/19 09:32:26;;;;;;;6.13;2.10;;;;;;;;;;13010513;19;20454;-65
2023/05/19 09:36:50;;;;;;;2.83;1.83;;;;;;;;;;13009077;19;20470;-65
2023/05/19 09:41:08;;;;;;;4.07;2.38;;;;;;;;;;13009297;19;20474;-66
2023/05/19 09:45:27;;;;;;;3.80;1.92;;;;;;;;;;13009640;19;20034;-65
2023/05/19 09:49:46;;;;;;;3.97;2.42;;;;;;;;;;13009675;19;20006;-65
2023/05/19 09:54:08;;;;;;;4.78;2.22;;;;;;;;;;13007004;19;20018;-66
2023/05/19 09:58:33;;;;;;;3.55;2.17;;;;;;;;;;13010196;19;20018;-65
2023/05/19 10:02:52;;;;;;;4.03;2.78;;;;;;;;;;13009575;19;20018;-66
2023/05/19 10:07:13;;;;;;;2.75;2.03;;;;;;;;;;13007543;19;20354;-65
2023/05/19 10:11:31;;;;;;;4.40;2.22;;;;;;;;;;13007268;19;20030;-65
2023/05/19 10:15:49;;;;;;;;;;;;;;;;;;13007898;19;20003;-65
2023/05/19 10:20:16;;;;;;;3.70;2.05;;;;;;;;;;13007484;19;19910;-65
2023/05/19 10:24:34;;;;;;;3.25;2.28;;;;;;;;;;13007753;19;20022;-65
2023/05/19 10:28:52;;;;;;;3.72;2.30;;;;;;;;;;13007810;19;20006;-65
2023/05/19 10:33:20;;;;;;;3.80;2.70;;;;;;;;;;13006845;19;20002;-65
2023/05/19 10:38:23;;;;;;;4.15;2.80;;;;;;;;;;13005137;19;20145;-66
2023/05/19 10:42:57;;;;;;;3.55;2.25;;;;;;;;;;13006674;19;20014;-65
2023/05/19 10:47:23;;;;;;;4.53;2.60;;;;;;;;;;13005488;19;20071;-66
2023/05/19 10:51:44;;;;;;;2.97;2.42;;;;;;;;;;13005138;19;20339;-65
2023/05/19 10:56:03;;;;;;;2.97;2.30;;;;;;;;;;13005093;19;20043;-66
2023/05/19 11:00:30;;;;;;;4.65;2.47;;;;;;;;;;13005714;19;20006;-65
2023/05/19 11:04:49;;;;;;;3.47;2.22;;;;;;;;;;13003232;19;20002;-65
2023/05/19 11:09:12;;;;;;;4.38;2.38;;;;;;;;;;13004578;19;20019;-65
2023/05/19 11:13:30;;;;;;;4.72;2.35;;;;;;;;;;13005162;19;20003;-65
2023/05/19 11:17:49;;;;;;;4.05;2.63;;;;;;;;;;13004495;19;20089;-65
2023/05/19 11:22:12;;;;;;;5.03;2.88;;;;;;;;;;13003544;19;20010;-66
2023/05/19 11:26:41;;;;;;;9.20;4.03;;;;;;;;;;13004768;19;20021;-65
2023/05/19 11:31:01;;;;;;;5.50;3.42;;;;;;;;;;13003752;19;20007;-65
2023/05/19 11:35:20;;;;;;;4.75;2.63;;;;;;;;;;13002908;19;20025;-66
2023/05/19 11:39:39;;;;;;;3.88;2.22;;;;;;;;;;13001403;19;20003;-66
2023/05/19 11:43:57;;;;;;;10.02;5.63;;;;;;;;;;13002418;19;20042;-65
2023/05/19 11:48:16;;;;;;;5.13;2.72;;;;;;;;;;13002571;19;20002;-65
2023/05/19 11:52:33;;;;;;;6.55;2.42;;;;;;;;;;13003105;19;20030;-65
2023/05/19 11:56:51;;;;;;;;;;;;;;;;;;13002961;19;20116;-66
2023/05/19 12:01:10;;;;;;;3.08;2.10;;;;;;;;;;13002141;19;19910;-65
2023/05/19 12:05:28;;;;;;;3.92;2.55;;;;;;;;;;13001890;19;20002;-65
2023/05/19 12:09:47;;;;;;;4.03;2.20;;;;;;;;;;13001737;19;20021;-65
2023/05/19 12:14:05;;;;;;;3.03;1.55;;;;;;;;;;13000801;19;20017;-66
2023/05/19 12:18:30;;;;;;;5.45;2.65;;;;;;;;;;13001596;19;20123;-66
2023/05/19 12:22:48;;;;;;;4.90;2.60;;;;;;;;;;13002136;19;20494;-66
2023/05/19 12:27:19;;;;;;;3.90;2.10;;;;;;;;;;13000266;19;20469;-66
2023/05/19 12:31:37;;;;;;;4.13;1.90;;;;;;;;;;13000892;19;20052;-65
2023/05/19 12:35:56;;;;;;;5.72;3.50;;;;;;;;;;13000100;19;20379;-66
2023/05/19 12:40:15;;;;;;;;;;;;;;;;;;13000569;19;20318;-65
2023/05/19 12:44:48;;;;;;;4.93;2.97;;;;;;;;;;12999232;19;20326;-65
2023/05/19 12:49:06;;;;;;;4.45;2.58;;;;;;;;;;12997223;19;20078;-67
2023/05/19 12:53:27;;;;;;;4.97;3.05;;;;;;;;;;12999506;19;20339;-66
2023/05/19 12:57:53;;;;;;;5.47;2.38;;;;;;;;;;12999413;19;20014;-66
2023/05/19 13:02:11;;;;;;;7.28;4.95;;;;;;;;;;12999503;19;20013;-65
2023/05/19 13:06:31;;;;;;;7.25;3.05;;;;;;;;;;12997614;19;20111;-65
2023/05/19 13:10:49;;;;;;;5.72;2.70;;;;;;;;;;12998383;19;20007;-65
2023/05/19 13:15:07;;;;;;;4.10;1.85;;;;;;;;;;12997877;19;20007;-65
2023/05/19 13:19:26;;;;;;;5.72;3.47;;;;;;;;;;12998353;19;20475;-65
2023/05/19 13:23:46;;;;;;;5.28;3.00;;;;;;;;;;12998473;19;20022;-65
2023/05/19 13:28:04;;;;;;;5.15;2.80;;;;;;;;;;13001779;19;20006;-65
2023/05/19 13:32:23;;;;;;;4.07;2.35;;;;;;;;;;13010570;19;20007;-65
2023/05/19 13:36:46;;;;;;;7.78;2.97;;;;;;;;;;13010281;19;20006;-65
2023/05/19 13:41:06;;;;;;;3.85;2.33;;;;;;;;;;13009795;19;20350;-65
2023/05/19 13:45:27;;;;;;;4.25;2.97;;;;;;;;;;13009448;19;20342;-65
2023/05/19 13:49:45;;;;;;;;;;;;;;;;;;13010398;19;20026;-65
2023/05/19 13:54:03;;;;;;;4.57;3.25;;;;;;;;;;13008934;19;20262;-65
2023/05/19 13:58:23;;;;;;;3.70;2.47;;;;;;;;;;13009059;19;20477;-65
2023/05/19 14:02:41;;;;;;;3.90;2.72;;;;;;;;;;13007068;19;20078;-65
2023/05/19 14:06:59;;;;;;;4.15;2.30;;;;;;;;;;13008394;19;20031;-65
2023/05/19 14:11:20;;;;;;;5.30;3.03;;;;;;;;;;13007117;19;20466;-65
2023/05/19 14:15:39;;;;;;;5.88;3.10;;;;;;;;;;13007941;19;20038;-65
2023/05/19 14:19:59;;;;;;;5.35;2.45;;;;;;;;;;13007796;19;20466;-65
2023/05/19 14:24:17;;;;;;;3.80;2.35;;;;;;;;;;13006069;19;20482;-65
2023/05/19 14:28:34;;;;;;;4.13;2.42;;;;;;;;;;13005789;19;20011;-65
2023/05/19 14:32:52;;;;;;;;;;;;;;;;;;13008295;19;20007;-66
2023/05/19 14:37:11;;;;;;;4.45;3.03;;;;;;;;;;13005511;19;19915;-66
2023/05/19 14:41:29;;;;;;;8.20;3.92;;;;;;;;;;13007297;19;19999;-65
2023/05/19 14:45:46;;;;;;;15.20;8.45;;;;;;;;;;13005968;19;20010;-66
2023/05/19 14:50:06;;;;;;;11.85;6.40;;;;;;;;;;13005539;19;20002;-65
2023/05/19 14:54:24;;;;;;;11.02;4.30;;;;;;;;;;13006325;19;20019;-65
2023/05/19 14:58:42;;;;;;;18.85;15.38;;;;;;;;;;13004904;19;20006;-66
2023/05/19 15:03:01;;;;;;;16.73;7.65;;;;;;;;;;13004271;19;20014;-66
2023/05/19 15:07:20;;;;;;;10.13;4.10;;;;;;;;;;13005196;19;20007;-66
2023/05/19 15:11:38;;;;;;;20.75;9.40;;;;;;;;;;13004980;19;20007;-65
2023/05/19 15:15:56;;;;;;;18.88;9.00;;;;;;;;;;13004837;19;20002;-66
2023/05/19 15:20:37;;;;;;;17.38;8.35;;;;;;;;;;13005880;19;20013;-65
2023/05/19 15:24:54;;;;;;;23.52;10.02;;;;;;;;;;13005432;19;20011;-66
2023/05/19 15:29:13;;;;;;;19.50;9.55;;;;;;;;;;13003520;19;20010;-66
2023/05/19 15:33:30;;;;;;;15.73;8.38;;;;;;;;;;13004312;19;20003;-65
2023/05/19 15:37:48;;;;;;;;;;;;;;;;;;13003684;19;20006;-66
2023/05/19 15:42:07;;;;;;;30.98;12.02;;;;;;;;;;13002656;19;19911;-65
2023/05/19 15:46:25;;;;;;;40.00;18.75;;;;;;;;;;13003008;19;20010;-66
2023/05/19 15:50:42;;;;;;;;;;;;;;;;;;13002170;19;20006;-65
2023/05/19 15:55:00;;;;;;;8.25;5.03;;;;;;;;;;13002976;19;19910;-66
2023/05/19 15:59:22;;;;;;;24.00;9.70;;;;;;;;;;12999949;19;20039;-65
2023/05/19 16:03:39;;;;;;;24.17;11.88;;;;;;;;;;13002527;19;20003;-66
2023/05/19 16:07:57;;;;;;;19.27;9.38;;;;;;;;;;13001858;19;20023;-66
2023/05/19 16:12:15;;;;;;;21.33;9.77;;;;;;;;;;13001253;19;20003;-66
2023/05/19 16:16:33;;;;;;;15.23;6.95;;;;;;;;;;13001440;19;20014;-66
2023/05/19 16:20:52;;;;;;;15.00;6.53;;;;;;;;;;13001792;19;20015;-66
2023/05/19 16:25:12;;;;;;;11.07;5.80;;;;;;;;;;13001110;19;20026;-66
2023/05/19 16:29:30;;;;;;;17.23;8.57;;;;;;;;;;13000667;19;20009;-65
2023/05/19 16:33:48;;;;;;;20.88;9.10;;;;;;;;;;12998361;19;20021;-66
2023/05/19 16:38:06;;;;;;;10.88;5.43;;;;;;;;;;12999518;19;19998;-66
2023/05/19 16:42:24;;;;;;;10.93;5.75;;;;;;;;;;13000845;19;20345;-66
2023/05/19 16:46:43;;;;;;;8.20;4.72;;;;;;;;;;12999724;19;20006;-66
2023/05/19 16:51:00;;;;;;;11.48;6.53;;;;;;;;;;13000088;19;20019;-65
2023/05/19 16:55:19;;;;;;;8.98;4.50;;;;;;;;;;12999254;19;20033;-65
2023/05/19 16:59:40;;;;;;;34.80;16.55;;;;;;;;;;12999317;19;20081;-65
2023/05/19 17:03:59;;;;;;;7.57;5.03;;;;;;;;;;13008893;19;20014;-65
2023/05/19 17:08:17;;;;;;;15.32;8.38;;;;;;;;;;13011676;19;20011;-66
2023/05/19 17:12:35;;;;;;;12.57;6.43;;;;;;;;;;13011914;19;20030;-66
2023/05/19 17:16:53;;;;;;;17.15;6.72;;;;;;;;;;13011114;19;20007;-65
2023/05/19 17:21:12;;;;;;;30.23;12.57;;;;;;;;;;13010634;19;20018;-66
2023/05/19 17:25:32;;;;;;;14.30;8.63;;;;;;;;;;13010685;19;20014;-66
2023/05/19 17:29:51;;;;;;;8.75;5.97;;;;;;;;;;13008367;19;20033;-65
2023/05/19 17:34:09;;;;;;;;;;;;;;;;;;13010905;19;20465;-66
2023/05/19 17:38:27;;;;;;;15.88;7.72;;;;;;;;;;13009875;19;19922;-65
2023/05/19 17:42:46;;;;;;;48.72;17.38;;;;;;;;;;13009923;19;20309;-65
2023/05/19 17:47:06;;;;;;;21.10;10.77;;;;;;;;;;13008423;19;20339;-66
2023/05/19 17:51:25;;;;;;;17.17;9.57;;;;;;;;;;13010595;19;20030;-66
2023/05/19 17:55:50;;;;;;;107.60;35.63;;;;;;;;;;13010136;19;20010;-65
2023/05/19 18:00:09;;;;;;;52.38;20.55;;;;;;;;;;13009501;19;20010;-66
2023/05/19 18:04:29;;;;;;;49.88;18.45;;;;;;;;;;13009300;19;20011;-66
2023/05/19 18:08:50;;;;;;;35.65;13.98;;;;;;;;;;13008993;19;20469;-65
2023/05/19 18:13:12;;;;;;;12.63;6.82;;;;;;;;;;13007269;19;20018;-65
2023/05/19 18:17:30;;;;;;;45.05;13.77;;;;;;;;;;13008359;19;20011;-66
2023/05/19 18:21:51;;;;;;;;;;;;;;;;;;13009190;19;20453;-66
2023/05/19 18:26:12;;;;;;;61.90;22.27;;;;;;;;;;13008312;19;19938;-65
2023/05/19 18:30:30;;;;;;;109.85;29.80;;;;;;;;;;13007507;19;20022;-65
2023/05/19 18:34:48;;;;;;;115.50;31.23;;;;;;;;;;13007321;19;20031;-65
2023/05/19 18:39:06;;;;;;;;;;;;;;;;;;13006595;19;20011;-66
2023/05/19 18:43:24;;;;;;;84.22;25.25;;;;;;;;;;13007224;19;19910;-66
2023/05/19 18:47:43;;;;;;;100.68;31.05;;;;;;;;;;13006976;19;20366;-66
2023/05/19 18:52:00;;;;;;;36.90;13.68;;;;;;;;;;13006748;19;20021;-65
2023/05/19 18:56:24;;;;;;;40.55;13.52;;;;;;;;;;13005774;19;20051;-65
2023/05/19 19:00:42;;;;;;;75.05;25.85;;;;;;;;;;13005737;19;20010;-66
2023/05/19 19:05:02;;;;;;;92.32;34.28;;;;;;;;;;13005489;19;20003;-66
2023/05/19 19:09:20;;;;;;;61.38;22.42;;;;;;;;;;13006823;19;20018;-66
2023/05/19 19:13:38;;;;;;;32.63;12.45;;;;;;;;;;13006152;19;20034;-65
2023/05/19 19:17:56;;;;;;;34.20;14.38;;;;;;;;;;13004920;19;20006;-65
2023/05/19 19:22:15;;;;;;;23.30;11.10;;;;;;;;;;13004966;19;20488;-65
2023/05/19 19:26:33;;;;;;;19.65;9.45;;;;;;;;;;13003072;19;20017;-65
2023/05/19 19:30:56;;;;;;;36.63;15.57;;;;;;;;;;13004811;19;20003;-66
2023/05/19 19:35:15;;;;;;;14.80;7.68;;;;;;;;;;13003958;19;20031;-65
2023/05/19 19:39:35;;;;;;;18.92;9.13;;;;;;;;;;13003226;19;20345;-65
2023/05/19 19:43:52;;;;;;;21.17;10.05;;;;;;;;;;13003328;19;20025;-65
2023/05/19 19:48:10;;;;;;;15.85;8.73;;;;;;;;;;13003203;19;20035;-65
2023/05/19 19:52:28;;;;;;;14.48;8.75;;;;;;;;;;13003130;19;20010;-65
2023/05/19 19:56:47;;;;;;;19.17;9.57;;;;;;;;;;13002231;19;20462;-65
2023/05/19 20:01:06;;;;;;;12.00;7.93;;;;;;;;;;13001662;19;20027;-66
2023/05/19 20:05:26;;;;;;;19.02;9.23;;;;;;;;;;13003529;19;20051;-65
2023/05/19 20:09:45;;;;;;;14.40;8.48;;;;;;;;;;13003304;19;20007;-66
2023/05/19 20:14:04;;;;;;;18.98;9.63;;;;;;;;;;13001300;19;20016;-65
2023/05/19 20:18:25;;;;;;;18.83;7.43;;;;;;;;;;13001327;19;20018;-65
2023/05/19 20:22:44;;;;;;;20.23;10.07;;;;;;;;;;13001155;19;20010;-65
2023/05/19 20:27:03;;;;;;;14.77;7.55;;;;;;;;;;13000935;19;20037;-66
2023/05/19 20:31:22;;;;;;;15.30;8.57;;;;;;;;;;12998821;19;20483;-65
2023/05/19 20:35:40;;;;;;;14.10;7.85;;;;;;;;;;13000662;19;20013;-65
2023/05/19 20:39:58;;;;;;;13.63;7.15;;;;;;;;;;13000242;19;20454;-66
2023/05/19 20:44:16;;;;;;;10.25;6.18;;;;;;;;;;13000259;19;20011;-65
2023/05/19 20:48:33;;;;;;;12.95;7.15;;;;;;;;;;13001215;19;20010;-65
2023/05/19 20:52:51;;;;;;;;;;;;;;;;;;13001042;19;20014;-65
2023/05/19 20:57:12;;;;;;;10.98;6.90;;;;;;;;;;12999503;19;19907;-65
2023/05/19 21:01:31;;;;;;;11.50;7.55;;;;;;;;;;12999758;19;20002;-65
2023/05/19 21:05:49;;;;;;;13.02;7.18;;;;;;;;;;12999405;19;20043;-65
2023/05/19 21:10:08;;;;;;;9.80;6.82;;;;;;;;;;12999137;19;20352;-66
2023/05/19 21:14:26;;;;;;;11.32;6.72;;;;;;;;;;12997688;19;20006;-65
2023/05/19 21:18:43;;;;;;;14.77;7.28;;;;;;;;;;12999113;19;20049;-66
2023/05/19 21:23:03;;;;;;;12.32;7.40;;;;;;;;;;12997984;19;20007;-65
2023/05/19 21:27:22;;;;;;;13.63;8.10;;;;;;;;;;12998295;19;20010;-65
2023/05/19 21:31:41;;;;;;;16.23;7.53;;;;;;;;;;12998161;19;20014;-65
2023/05/19 21:35:59;;;;;;;14.15;8.18;;;;;;;;;;12998563;19;20509;-65
2023/05/19 21:40:16;;;;;;;;;;;;;;;;;;12997415;19;20022;-66
2023/05/19 21:44:35;;;;;;;14.90;7.00;;;;;;;;;;12997249;19;20354;-65
2023/05/19 21:48:53;;;;;;;16.15;7.90;;;;;;;;;;13003420;19;20018;-65
2023/05/19 21:53:11;;;;;;;12.73;6.15;;;;;;;;;;13008998;19;20013;-65
2023/05/19 21:57:29;;;;;;;12.13;7.30;;;;;;;;;;13008725;19;20018;-65
2023/05/19 22:01:48;;;;;;;11.43;6.20;;;;;;;;;;13010282;19;20010;-66
2023/05/19 22:06:07;;;;;;;13.80;6.85;;;;;;;;;;13008381;19;20466;-66
2023/05/19 22:10:25;;;;;;;12.95;6.57;;;;;;;;;;13008763;19;20022;-65
2023/05/19 22:14:43;;;;;;;11.82;7.15;;;;;;;;;;13008818;19;20021;-66
2023/05/19 22:19:02;;;;;;;;;;;;;;;;;;13008148;19;20011;-66
2023/05/19 22:23:21;;;;;;;8.73;4.82;;;;;;;;;;13008360;19;19930;-65
2023/05/19 22:27:39;;;;;;;;;;;;;;;;;;13008929;19;20006;-66
2023/05/19 22:31:56;;;;;;;8.85;5.57;;;;;;;;;;13007545;19;20063;-65
2023/05/19 22:36:15;;;;;;;10.38;5.78;;;;;;;;;;13006833;19;20011;-65
2023/05/19 22:40:32;;;;;;;10.30;5.80;;;;;;;;;;13007303;19;19998;-65
2023/05/19 22:44:52;;;;;;;10.90;5.88;;;;;;;;;;13006115;19;20003;-65
2023/05/19 22:49:09;;;;;;;10.63;6.20;;;;;;;;;;13005943;19;20006;-65
2023/05/19 22:53:28;;;;;;;10.85;4.90;;;;;;;;;;13006470;19;20335;-66
2023/05/19 22:57:45;;;;;;;10.80;5.43;;;;;;;;;;13007560;19;20002;-65
2023/05/19 23:02:04;;;;;;;11.40;5.80;;;;;;;;;;13003001;19;20011;-65
2023/05/19 23:06:22;;;;;;;9.77;5.25;;;;;;;;;;13005538;19;20449;-66
2023/05/19 23:10:40;;;;;;;10.98;6.72;;;;;;;;;;13006212;19;20007;-65
2023/05/19 23:14:58;;;;;;;9.98;5.85;;;;;;;;;;13005741;19;20022;-65
2023/05/19 23:19:16;;;;;;;11.43;5.15;;;;;;;;;;13004364;19;20450;-65
2023/05/19 23:23:35;;;;;;;;;;;;;;;;;;13006313;19;20045;-65
2023/05/19 23:27:53;;;;;;;10.52;6.28;;;;;;;;;;13004847;19;19930;-65
2023/05/19 23:32:12;;;;;;;;;;;;;;;;;;13004656;19;19998;-65
2023/05/19 23:36:30;;;;;;;9.60;5.43;;;;;;;;;;13004977;19;20354;-65
2023/05/19 23:40:48;;;;;;;11.25;6.35;;;;;;;;;;13004395;19;20014;-65
2023/05/19 23:45:06;;;;;;;10.73;5.90;;;;;;;;;;13002089;19;20006;-65
2023/05/19 23:49:25;;;;;;;12.45;6.13;;;;;;;;;;13003633;19;20449;-65
2023/05/19 23:53:42;;;;;;;11.35;6.70;;;;;;;;;;13003397;19;20014;-66
2023/05/19 23:58:00;;;;;;;10.55;6.70;;;;;;;;;;13002264;19;20034;-65
